Time;durP1;ratioP1;P1;durP2;ratioP2;P2;SDS_P1;SDS_P2;PMS_P1;PMS_P2;Temp;Humidity;BMP_temperature;BMP_pressure;BME280_temperature;BME280_humidity;BME280_pressure;Samples;Min_cycle;Max_cycle;Signal;HPM_P1;HPM_P2
2021/12/08 00:01:31;;;;;;;45.77;18.27;;;;;;;1.38;68.85;99986.41;5476008;32;34004;-67
2021/12/08 00:04:33;;;;;;;44.27;18.37;;;;;;;0.84;70.54;99983.34;5462538;32;34055;-72
2021/12/08 00:07:35;;;;;;;42.67;19.73;;;;;;;1.12;70.12;99999.53;5454103;32;34063;-66
2021/12/08 00:11:03;;;;;;;41.90;18.77;;;;;;;1.64;68.63;99983.56;5466765;32;34724;-66
2021/12/08 00:14:01;;;;;;;41.10;18.47;;;;;;;1.89;67.38;99992.84;5482901;32;34019;-67
2021/12/08 00:17:04;;;;;;;46.63;18.97;;;;;;;2.33;64.44;99988.03;5471958;32;34528;-71
2021/12/08 00:20:08;;;;;;;45.67;19.10;;;;;;;1.33;67.92;99988.16;5464929;32;34493;-71
2021/12/08 00:23:11;;;;;;;46.27;19.67;;;;;;;0.76;70.77;100001.47;5472073;32;34561;-67
2021/12/08 00:26:13;;;;;;;45.13;18.63;;;;;;;0.96;70.54;100011.69;5454705;32;34443;-67
2021/12/08 00:29:16;;;;;;;46.50;19.43;;;;;;;1.30;68.77;99995.97;5480025;32;34673;-71
2021/12/08 00:32:20;;;;;;;42.73;19.17;;;;;;;1.22;69.52;100008.94;5457470;32;34087;-68
2021/12/08 00:35:23;;;;;;;40.50;17.43;;;;;;;2.25;65.72;100013.19;5471330;32;34885;-70
2021/12/08 00:38:27;;;;;;;45.80;20.87;;;;;;;1.71;65.50;100010.28;5481288;32;35276;-71
2021/12/08 00:41:30;;;;;;;45.45;18.17;;;;;;;1.14;69.29;100008.16;5451744;32;34873;-71
2021/12/08 00:44:32;;;;;;;42.23;17.23;;;;;;;1.27;68.49;100014.09;5453056;32;34462;-71
2021/12/08 00:47:34;;;;;;;41.20;17.30;;;;;;;1.38;69.00;100022.66;5466767;32;34740;-68
2021/12/08 00:50:38;;;;;;;43.37;19.43;;;;;;;1.26;68.47;100017.56;5468048;32;35206;-67
2021/12/08 00:53:40;;;;;;;41.58;18.42;;;;;;;1.54;68.33;100013.00;5443418;32;34742;-71
2021/12/08 00:56:43;;;;;;;43.33;18.27;;;;;;;2.34;63.70;100007.91;5478364;32;32778;-67
2021/12/08 00:59:45;;;;;;;43.63;18.57;;;;;;;1.69;66.92;100022.41;5458284;32;34115;-73
2021/12/08 01:03:01;;;;;;;42.97;18.93;;;;;;;1.46;68.58;100028.62;5473127;32;34860;-72
2021/12/08 01:06:05;;;;;;;41.13;17.95;;;;;;;1.96;65.62;100027.31;5480458;32;34717;-70
2021/12/08 01:09:08;;;;;;;46.35;17.52;;;;;;;1.16;68.70;100031.41;5483059;32;34232;-71
2021/12/08 01:12:11;;;;;;;42.90;18.75;;;;;;;1.17;69.15;100038.34;5488753;32;34866;-71
2021/12/08 01:15:14;;;;;;;44.58;18.65;;;;;;;1.41;68.21;100020.03;5471772;32;34085;-66
2021/12/08 01:18:17;;;;;;;48.00;19.77;;;;;;;1.42;68.88;100024.34;5460320;32;35142;-71
2021/12/08 01:21:20;;;;;;;41.03;18.17;;;;;;;1.56;67.49;100022.50;5461302;32;34956;-73
2021/12/08 01:24:23;;;;;;;44.07;19.93;;;;;;;0.96;70.43;100022.06;5461576;32;34416;-71
2021/12/08 01:27:25;;;;;;;46.63;18.77;;;;;;;1.33;68.66;100011.47;5475581;32;34886;-67
2021/12/08 01:30:28;;;;;;;49.10;21.83;;;;;;;1.30;68.91;100007.19;5464281;32;33911;-67
2021/12/08 01:33:35;;;;;;;45.40;21.07;;;;;;;1.33;69.22;100003.69;5476110;32;34730;-71
2021/12/08 01:36:40;;;;;;;41.43;18.07;;;;;;;1.14;69.55;99996.94;5480456;32;34157;-68
2021/12/08 01:39:42;;;;;;;42.80;19.50;;;;;;;1.81;67.31;99988.63;5479123;32;35049;-71
2021/12/08 01:42:47;;;;;;;43.97;18.03;;;;;;;1.46;67.38;99978.56;5456375;32;34004;-71
2021/12/08 01:46:01;;;;;;;47.33;19.63;;;;;;;1.34;68.67;99979.50;5473135;32;34050;-71
2021/12/08 01:49:03;;;;;;;44.33;20.08;;;;;;;1.08;69.15;99969.34;5474542;32;34282;-72
2021/12/08 01:52:06;;;;;;;43.50;20.03;;;;;;;1.20;70.05;99976.19;5467127;32;34608;-72
2021/12/08 01:55:10;;;;;;;46.93;21.47;;;;;;;1.32;69.22;99981.25;5475874;32;35389;-68
2021/12/08 01:58:18;;;;;;;44.63;19.70;;;;;;;1.12;69.25;99978.84;5478303;32;34757;-67
2021/12/08 02:01:23;;;;;;;44.55;19.85;;;;;;;2.01;66.45;99978.03;5463819;32;34324;-68
2021/12/08 02:04:26;;;;;;;43.60;20.97;;;;;;;2.14;65.14;99977.87;5466071;32;34512;-68
2021/12/08 02:07:29;;;;;;;54.63;21.43;;;;;;;2.04;64.28;99973.66;5450056;32;35153;-72
2021/12/08 02:10:32;;;;;;;48.70;20.65;;;;;;;1.10;68.12;99969.38;5449707;32;32826;-72
2021/12/08 02:13:38;;;;;;;45.83;19.23;;;;;;;1.97;66.28;99961.66;5465340;32;33779;-68
2021/12/08 02:16:41;;;;;;;44.00;18.37;;;;;;;2.28;64.18;99962.16;5471904;32;34183;-68
2021/12/08 02:19:43;;;;;;;41.13;18.80;;;;;;;1.14;67.16;99961.56;5461380;32;34241;-72
2021/12/08 02:22:45;;;;;;;44.60;18.93;;;;;;;0.45;70.91;99958.53;5467059;32;34155;-67
2021/12/08 02:25:49;;;;;;;41.57;19.43;;;;;;;0.52;72.33;99940.41;5471504;32;34201;-71
2021/12/08 02:28:52;;;;;;;48.90;19.25;;;;;;;0.40;71.84;99935.31;5470056;32;35111;-68
2021/12/08 02:32:03;;;;;;;45.35;19.60;;;;;;;0.31;72.78;99940.50;5483495;32;33872;-71
2021/12/08 02:48:41;;;;;;;40.03;18.33;;;;;;;0.84;69.32;99946.22;5479085;32;34189;-67
2021/12/08 02:51:43;;;;;;;43.13;19.40;;;;;;;1.02;69.25;99954.72;5485751;32;34963;-72
2021/12/08 02:54:48;;;;;;;45.55;20.23;;;;;;;0.17;72.57;99957.78;5455357;32;34850;-66
2021/12/08 02:57:51;;;;;;;45.47;19.70;;;;;;;1.12;70.64;99963.31;5489370;32;33930;-67
2021/12/08 03:01:00;;;;;;;38.17;18.50;;;;;;;2.00;65.46;99969.41;5464138;32;35289;-71
2021/12/08 03:04:04;;;;;;;46.37;19.67;;;;;;;1.93;65.33;99972.91;5474648;32;34990;-71
2021/12/08 03:07:07;;;;;;;45.60;19.27;;;;;;;0.46;70.77;99988.72;5487804;32;34824;-72
2021/12/08 03:10:17;;;;;;;40.87;19.00;;;;;;;0.23;73.12;99986.22;5474520;32;34496;-67
2021/12/08 03:13:32;;;;;;;43.17;19.27;;;;;;;1.23;70.57;99971.00;5478812;32;34837;-67
2021/12/08 03:16:39;;;;;;;49.47;20.37;;;;;;;0.36;72.12;99976.69;5468248;32;33240;-67
2021/12/08 03:19:41;;;;;;;49.77;19.87;;;;;;;1.28;68.75;99967.47;5480023;32;34157;-71
2021/12/08 03:22:47;;;;;;;41.07;18.43;;;;;;;0.17;73.15;99975.88;5487221;32;34505;-67
2021/12/08 03:25:55;;;;;;;43.47;19.30;;;;;;;0.60;72.52;99973.13;5467482;32;34349;-71
2021/12/08 03:29:03;;;;;;;51.93;20.60;;;;;;;1.58;68.53;99970.69;5473610;32;33936;-73
2021/12/08 03:32:14;;;;;;;46.13;19.03;;;;;;;0.81;69.89;99973.84;5482628;32;34324;-72
2021/12/08 03:35:17;;;;;;;43.33;19.13;;;;;;;0.76;70.62;99959.22;5482903;32;35654;-71
2021/12/08 03:38:21;;;;;;;47.08;20.88;;;;;;;0.77;70.49;99953.19;5484593;32;34169;-70
2021/12/08 03:41:24;;;;;;;46.25;18.92;;;;;;;0.71;71.11;99966.16;5460279;32;34757;-67
2021/12/08 03:44:26;;;;;;;47.20;20.93;;;;;;;1.19;69.66;99958.94;5473020;32;34031;-67
2021/12/08 03:47:30;;;;;;;45.17;19.93;;;;;;;0.56;71.11;99967.09;5467054;32;35181;-67
2021/12/08 03:50:36;;;;;;;45.67;19.23;;;;;;;0.78;70.09;99968.72;5468743;32;35400;-72
2021/12/08 03:53:38;;;;;;;45.50;19.93;;;;;;;0.48;71.45;99954.22;5487827;32;34032;-72
2021/12/08 03:56:41;;;;;;;41.23;20.00;;;;;;;1.33;68.08;99949.31;5477843;32;34731;-70
2021/12/08 03:59:43;;;;;;;45.03;19.00;;;;;;;1.31;66.21;99953.66;5469396;32;34767;-67
2021/12/08 04:02:46;;;;;;;44.63;19.70;;;;;;;1.10;68.89;99961.59;5471460;32;35184;-67
2021/12/08 04:05:57;;;;;;;49.70;19.30;;;;;;;0.46;71.07;99971.47;5473825;32;34008;-67
2021/12/08 04:09:04;;;;;;;44.80;18.90;;;;;;;-0.13;73.87;99985.47;5465300;32;32914;-67
2021/12/08 04:12:09;;;;;;;49.30;21.10;;;;;;;-0.51;74.84;99987.25;5465313;32;33055;-72
2021/12/08 04:15:13;;;;;;;43.60;18.60;;;;;;;0.09;72.08;99982.81;5461610;32;33947;-71
2021/12/08 04:18:18;;;;;;;43.17;19.10;;;;;;;0.41;71.76;99980.97;5486978;32;34722;-70
2021/12/08 04:21:20;;;;;;;44.70;19.00;;;;;;;1.39;67.30;99972.56;5469668;32;35292;-67
2021/12/08 04:24:23;;;;;;;41.23;17.97;;;;;;;1.16;67.32;99969.28;5464254;32;33920;-68
2021/12/08 04:27:33;;;;;;;48.57;18.67;;;;;;;1.61;65.68;99973.22;5464400;32;36488;-73
2021/12/08 04:30:51;;;;;;;40.37;17.23;;;;;;;1.16;66.36;99977.06;5452389;32;34083;-67
2021/12/08 04:33:59;;;;;;;45.40;17.67;;;;;;;1.17;67.87;99971.91;5462441;32;34959;-67
2021/12/08 04:37:07;;;;;;;54.87;20.57;;;;;;;0.85;68.39;99976.44;5470244;32;33916;-67
2021/12/08 04:43:37;;;;;;;49.37;19.63;;;;;;;0.23;72.40;99981.91;5494254;32;34698;-72
2021/12/08 05:10:24;;;;;;;57.35;20.73;;;;;;;1.92;64.46;99976.38;5472728;32;34636;-71
2021/12/08 05:13:26;;;;;;;46.90;20.30;;;;;;;1.44;66.97;99986.34;5484278;32;34072;-66
2021/12/08 05:16:31;;;;;;;47.20;20.00;;;;;;;0.31;71.90;99981.84;5469739;32;35179;-72
2021/12/08 05:19:34;;;;;;;50.60;21.07;;;;;;;1.00;69.74;99974.59;5463667;32;36433;-67
2021/12/08 05:22:43;;;;;;;46.10;20.80;;;;;;;1.29;68.66;99974.41;5469237;32;34791;-71
2021/12/08 05:25:46;;;;;;;42.77;20.03;;;;;;;1.18;68.56;99970.16;5468882;32;34173;-73
2021/12/08 05:28:49;;;;;;;44.13;19.50;;;;;;;1.58;66.68;99974.12;5446072;32;34566;-72
2021/12/08 05:31:52;;;;;;;48.43;20.80;;;;;;;1.92;65.31;99968.59;5460966;32;34050;-71
2021/12/08 05:34:54;;;;;;;44.77;20.60;;;;;;;1.17;67.79;99971.91;5475469;32;34049;-70
2021/12/08 05:37:57;;;;;;;48.87;19.43;;;;;;;2.00;65.06;99971.13;5472304;32;33225;-68
2021/12/08 05:41:10;;;;;;;47.80;21.67;;;;;;;1.12;67.69;99962.44;5461953;32;34894;-70
2021/12/08 05:44:13;;;;;;;44.70;20.07;;;;;;;0.69;70.36;99960.12;5472758;32;34092;-68
2021/12/08 05:47:27;;;;;;;48.70;21.67;;;;;;;1.32;68.38;99957.97;5459654;32;35358;-68
2021/12/08 05:50:35;;;;;;;46.43;20.60;;;;;;;1.36;67.63;99962.25;5465902;32;32765;-71
2021/12/08 05:53:41;;;;;;;44.40;19.30;;;;;;;1.81;66.02;99948.00;5466040;32;34601;-73
2021/12/08 05:56:44;;;;;;;45.70;19.50;;;;;;;1.91;64.98;99956.53;5475896;32;34489;-72
2021/12/08 05:59:49;;;;;;;47.27;21.30;;;;;;;1.67;65.38;99967.12;5482404;32;35047;-71
2021/12/08 06:02:53;;;;;;;49.30;20.53;;;;;;;0.90;69.07;99962.59;5484909;32;34973;-67
2021/12/08 06:05:57;;;;;;;44.57;18.57;;;;;;;1.52;66.71;99969.00;5461488;32;35640;-71
2021/12/08 06:09:00;;;;;;;48.38;19.40;;;;;;;0.90;68.99;99979.81;5492276;32;35111;-72
2021/12/08 06:12:05;;;;;;;46.53;18.58;;;;;;;1.21;68.37;99975.31;5484260;32;34557;-67
2021/12/08 06:15:08;;;;;;;47.90;20.17;;;;;;;1.46;66.77;99981.16;5454126;32;35619;-67
2021/12/08 06:18:11;;;;;;;50.72;19.87;;;;;;;0.69;69.19;99975.66;5490457;32;34058;-68
2021/12/08 06:21:16;;;;;;;51.50;20.23;;;;;;;0.17;72.98;99983.66;5477122;32;35223;-72
2021/12/08 06:24:22;;;;;;;48.77;20.27;;;;;;;1.02;70.01;99983.19;5471052;32;33956;-71
2021/12/08 06:27:27;;;;;;;47.70;19.90;;;;;;;1.58;67.68;99978.44;5470345;32;34151;-67
2021/12/08 06:30:32;;;;;;;46.43;20.90;;;;;;;2.05;65.00;99979.69;5462713;32;34789;-72
2021/12/08 06:33:35;;;;;;;49.23;24.07;;;;;;;1.51;66.93;99987.16;5471689;32;34126;-71
2021/12/08 06:36:59;;;;;;;44.22;19.83;;;;;;;0.57;70.94;99983.47;5480057;32;33264;-69
2021/12/08 06:40:15;;;;;;;47.60;20.73;;;;;;;0.79;71.07;99985.09;5470545;32;34693;-70
2021/12/08 06:43:22;;;;;;;49.37;20.67;;;;;;;0.80;69.27;99979.03;5463464;32;34088;-69
2021/12/08 06:46:28;;;;;;;50.47;20.17;;;;;;;0.68;71.61;99984.28;5479152;32;34124;-72
2021/12/08 06:49:31;;;;;;;46.90;20.93;;;;;;;1.19;69.78;99982.22;5462882;32;32580;-64
2021/12/08 06:52:38;;;;;;;45.53;19.43;;;;;;;1.93;65.68;99972.06;5457091;32;35514;-69
2021/12/08 06:56:08;;;;;;;46.57;20.13;;;;;;;2.16;64.76;99976.13;5485929;32;34395;-71
2021/12/08 06:59:17;;;;;;;49.70;22.30;;;;;;;2.03;64.04;99976.28;5467215;32;33961;-65
2021/12/08 07:02:47;;;;;;;54.40;22.27;;;;;;;1.41;66.96;99980.31;5472407;32;33999;-74
2021/12/08 07:06:05;;;;;;;57.17;20.67;;;;;;;0.43;70.95;99976.63;5476051;32;35237;-69
2021/12/08 07:09:22;;;;;;;60.07;22.00;;;;;;;-0.05;74.01;99983.72;5450294;32;35733;-69
2021/12/08 07:12:40;;;;;;;56.77;20.67;;;;;;;0.33;73.79;99987.06;5476470;32;36330;-69
2021/12/08 07:15:55;;;;;;;48.93;22.33;;;;;;;1.25;70.05;99979.59;5479512;32;35705;-70
2021/12/08 07:19:22;;;;;;;51.67;22.53;;;;;;;0.94;70.51;99971.19;5432762;32;34840;-65
2021/12/08 07:22:27;;;;;;;47.90;21.93;;;;;;;0.58;71.34;99980.00;5438789;32;34313;-64
2021/12/08 07:25:33;;;;;;;55.73;22.80;;;;;;;0.81;70.63;99978.16;5439535;32;34050;-73
2021/12/08 07:28:37;;;;;;;46.70;22.17;;;;;;;0.86;71.36;99978.16;5425790;32;34147;-70
2021/12/08 07:31:44;;;;;;;50.67;21.83;;;;;;;1.16;70.28;99969.28;5434552;32;35536;-65
2021/12/08 07:34:52;;;;;;;51.63;22.30;;;;;;;1.76;66.46;99974.84;5438297;32;34428;-76
2021/12/08 07:37:57;;;;;;;50.85;22.50;;;;;;;1.63;66.78;99977.53;5430305;32;34097;-71
2021/12/08 07:41:10;;;;;;;46.80;22.17;;;;;;;2.01;66.25;99978.91;5432258;32;33947;-71
2021/12/08 07:44:14;;;;;;;46.37;20.53;;;;;;;1.72;64.73;99983.50;5433879;32;35152;-71
2021/12/08 07:47:17;;;;;;;52.72;23.58;;;;;;;1.36;67.03;99982.97;5435882;32;35191;-64
2021/12/08 07:50:31;;;;;;;44.60;21.52;;;;;;;0.97;69.30;99984.13;5466467;32;33717;-65
2021/12/08 07:53:34;;;;;;;52.25;22.62;;;;;;;2.49;63.71;99978.31;5486676;32;34035;-66
2021/12/08 07:56:38;;;;;;;57.83;21.95;;;;;;;0.90;69.14;99985.00;5479079;32;34027;-67
2021/12/08 07:59:43;;;;;;;54.20;24.20;;;;;;;2.47;62.88;99983.53;5488134;32;34027;-70
2021/12/08 08:02:45;;;;;;;53.97;22.50;;;;;;;0.97;67.06;99987.56;5458715;32;35591;-69
2021/12/08 08:05:51;;;;;;;54.20;23.57;;;;;;;0.72;70.46;99994.63;5464840;32;35133;-70
2021/12/08 08:08:54;;;;;;;49.47;22.33;;;;;;;1.15;68.63;99988.28;5482614;32;32918;-74
2021/12/08 08:12:00;;;;;;;62.38;27.42;;;;;;;1.25;69.75;99992.53;5443059;32;35307;-75
2021/12/08 08:15:08;;;;;;;53.17;25.47;;;;;;;1.15;68.25;100001.22;5465280;32;35605;-71
2021/12/08 08:18:14;;;;;;;59.77;26.10;;;;;;;1.00;68.33;100004.78;5478385;32;34021;-70
2021/12/08 08:21:20;;;;;;;54.13;24.90;;;;;;;1.34;67.99;99992.47;5483620;32;34623;-69
2021/12/08 08:24:23;;;;;;;48.97;22.40;;;;;;;1.52;66.68;99992.31;5465428;32;34579;-65
2021/12/08 08:27:27;;;;;;;53.58;25.70;;;;;;;1.78;66.39;99989.47;5478086;32;33919;-66
2021/12/08 08:30:37;;;;;;;58.40;24.87;;;;;;;1.58;67.80;99994.84;5461791;32;34044;-66
2021/12/08 08:33:41;;;;;;;56.23;23.83;;;;;;;1.87;66.23;99992.00;5460337;32;34305;-65
2021/12/08 08:36:45;;;;;;;58.13;25.80;;;;;;;2.04;65.82;99997.00;5489057;32;35383;-65
2021/12/08 08:39:53;;;;;;;63.03;25.57;;;;;;;1.81;66.75;100001.56;5483698;32;34009;-65
2021/12/08 08:42:56;;;;;;;56.67;23.90;;;;;;;3.36;60.71;99997.84;5484071;32;34299;-67
2021/12/08 08:46:04;;;;;;;50.88;22.15;;;;;;;3.25;61.09;99996.28;5468991;32;36047;-64
2021/12/08 08:49:12;;;;;;;46.93;23.27;;;;;;;2.74;62.75;100002.22;5483140;32;35069;-72
2021/12/08 08:52:25;;;;;;;50.30;22.00;;;;;;;1.99;63.79;100003.09;5474135;32;33889;-70
2021/12/08 08:55:33;;;;;;;52.25;24.10;;;;;;;1.89;67.13;100008.38;5483776;32;32231;-65
2021/12/08 08:58:36;;;;;;;54.70;22.37;;;;;;;2.28;65.78;100003.66;5482074;32;32916;-71
2021/12/08 09:01:46;;;;;;;54.27;23.87;;;;;;;2.44;64.34;99996.53;5487427;32;34969;-71
2021/12/08 09:04:53;;;;;;;56.37;23.97;;;;;;;2.16;65.93;99994.25;5487078;32;34561;-67
2021/12/08 09:07:57;;;;;;;50.90;23.90;;;;;;;2.82;63.60;99987.41;5477143;32;34036;-70
2021/12/08 09:11:10;;;;;;;;;;;;;;;3.69;60.31;99975.66;5473605;32;34081;-69
2021/12/08 09:14:17;;;;;;;59.63;23.70;;;;;;;3.51;61.25;99987.19;5485345;32;35018;-67
2021/12/08 09:17:31;;;;;;;55.63;22.97;;;;;;;2.80;64.04;99981.38;5467018;32;34154;-66
2021/12/08 09:20:44;;;;;;;52.13;22.70;;;;;;;2.64;64.31;99978.13;5456586;32;33960;-65
2021/12/08 09:23:51;;;;;;;53.92;24.48;;;;;;;2.67;63.64;99989.31;5487854;32;35211;-71
2021/12/08 09:26:58;;;;;;;44.07;23.43;;;;;;;4.04;60.02;99959.38;5484204;32;35905;-72
2021/12/08 09:30:10;;;;;;;53.43;24.50;;;;;;;3.09;62.17;99962.75;5484288;32;34221;-74
2021/12/08 09:33:20;;;;;;;50.70;22.77;;;;;;;4.40;59.08;99950.00;5486865;32;34230;-76
2021/12/08 09:36:45;;;;;;;48.10;23.63;;;;;;;4.00;59.75;99940.41;5482934;32;34123;-73
2021/12/08 09:39:55;;;;;;;46.70;23.83;;;;;;;3.82;59.51;99942.50;5469775;32;34102;-66
2021/12/08 09:43:01;;;;;;;53.40;23.63;;;;;;;3.60;59.90;99950.66;5471425;32;33966;-72
2021/12/08 09:46:12;;;;;;;52.43;23.70;;;;;;;3.63;61.08;99945.41;5461204;32;34987;-66
2021/12/08 09:49:17;;;;;;;48.53;21.73;;;;;;;3.70;60.76;99947.03;5482045;32;34350;-66
2021/12/08 09:52:20;;;;;;;41.13;21.60;;;;;;;4.30;58.83;99936.31;5482115;32;34002;-78
2021/12/08 09:55:23;;;;;;;43.72;21.90;;;;;;;4.26;58.25;99934.69;5485129;32;34058;-78
2021/12/08 09:58:26;;;;;;;52.95;23.67;;;;;;;4.56;57.02;99932.28;5487858;32;34267;-72
2021/12/08 10:01:29;;;;;;;47.70;24.10;;;;;;;4.58;57.67;99938.34;5472220;32;33207;-71
2021/12/08 10:04:33;;;;;;;46.20;21.43;;;;;;;4.95;56.20;99934.91;5469681;32;34431;-63
2021/12/08 10:07:35;;;;;;;50.70;24.48;;;;;;;5.03;55.45;99926.03;5470981;32;34109;-73
2021/12/08 10:10:41;;;;;;;49.23;24.67;;;;;;;4.38;58.11;99927.47;5491535;32;34219;-82
2021/12/08 10:13:45;;;;;;;48.73;24.30;;;;;;;4.79;56.80;99919.63;5454456;32;34228;-73
2021/12/08 10:16:52;;;;;;;49.53;24.73;;;;;;;5.64;53.89;99911.44;5484654;32;35313;-73
2021/12/08 10:20:17;;;;;;;50.80;24.97;;;;;;;4.73;56.17;99911.97;5486683;32;34178;-76
2021/12/08 10:23:28;;;;;;;53.47;24.43;;;;;;;5.51;54.25;99919.63;5486231;32;33949;-78
2021/12/08 10:26:33;;;;;;;56.63;25.93;;;;;;;4.76;56.25;99911.88;5487769;32;34155;-78
2021/12/08 10:29:35;;;;;;;52.93;25.23;;;;;;;5.33;54.83;99900.94;5469364;32;34024;-68
2021/12/08 10:32:37;;;;;;;55.93;24.47;;;;;;;5.54;53.23;99896.06;5487026;32;34220;-67
2021/12/08 10:35:49;;;;;;;51.50;26.43;;;;;;;5.09;54.82;99893.78;5483585;32;34063;-67
2021/12/08 10:38:53;;;;;;;54.17;25.07;;;;;;;4.32;57.08;99899.88;5474128;32;32820;-81
2021/12/08 10:41:59;;;;;;;46.63;24.58;;;;;;;4.77;55.43;99884.13;5470580;32;35015;-79
2021/12/08 10:45:23;;;;;;;52.77;26.43;;;;;;;5.30;54.29;99890.62;5483482;32;34152;-73
2021/12/08 10:48:33;;;;;;;56.27;26.07;;;;;;;4.64;55.31;99891.34;5485147;32;33776;-69
2021/12/08 10:55:13;;;;;;;55.77;27.37;;;;;;;5.19;55.18;99882.22;5487231;32;34072;-82
2021/12/08 10:58:24;;;;;;;54.50;26.60;;;;;;;5.06;55.76;99880.81;5453132;32;35324;-71
2021/12/08 11:01:27;;;;;;;53.00;27.60;;;;;;;5.93;53.83;99881.16;5477384;32;35470;-72
2021/12/08 11:04:31;;;;;;;50.67;25.43;;;;;;;5.64;53.97;99880.16;5484832;32;33780;-70
2021/12/08 11:07:33;;;;;;;;;;;;;;;4.80;55.20;99869.28;5461944;32;35071;-75
2021/12/08 11:10:52;;;;;;;49.90;23.87;;;;;;;5.36;54.80;99867.00;5458704;32;34360;-71
2021/12/08 11:13:57;;;;;;;53.07;25.27;;;;;;;5.07;55.18;99861.66;5483846;32;33986;-69
2021/12/08 11:16:59;;;;;;;48.90;24.90;;;;;;;5.67;53.67;99847.94;5485270;32;34035;-71
2021/12/08 11:20:21;;;;;;;45.30;23.77;;;;;;;6.42;52.62;99845.78;5473051;32;35007;-69
2021/12/08 11:23:41;;;;;;;47.87;23.40;;;;;;;6.38;52.59;99845.03;5484688;32;34216;-70
2021/12/08 11:26:47;;;;;;;46.70;22.60;;;;;;;5.82;53.13;99844.91;5471445;32;33937;-69
2021/12/08 11:29:50;;;;;;;54.87;24.83;;;;;;;6.10;52.50;99846.75;5481133;32;33984;-70
2021/12/08 11:33:11;;;;;;;55.90;25.20;;;;;;;6.75;51.46;99838.63;5482172;32;34476;-69
2021/12/08 11:36:16;;;;;;;46.40;23.00;;;;;;;6.34;52.35;99847.78;5481519;32;34018;-68
2021/12/08 11:39:36;;;;;;;47.90;23.77;;;;;;;4.54;57.10;99854.25;5479193;32;35296;-68
2021/12/08 11:42:38;;;;;;;48.90;23.57;;;;;;;6.08;53.81;99848.56;5477690;32;33820;-69
2021/12/08 11:45:43;;;;;;;44.43;22.67;;;;;;;7.09;49.68;99832.34;5483454;32;34711;-72
2021/12/08 11:48:59;;;;;;;48.80;22.10;;;;;;;6.96;50.09;99837.09;5479593;32;34088;-72
2021/12/08 11:52:10;;;;;;;44.00;22.47;;;;;;;7.21;49.79;99835.38;5471847;32;34887;-70
2021/12/08 11:55:15;;;;;;;50.87;22.50;;;;;;;7.23;49.81;99833.56;5465658;32;33814;-73
2021/12/08 11:58:22;;;;;;;44.27;22.23;;;;;;;8.18;46.02;99829.25;5490082;32;34357;-82
2021/12/08 12:01:26;;;;;;;47.53;23.67;;;;;;;6.92;48.70;99828.50;5459694;32;35835;-75
2021/12/08 12:04:29;;;;;;;53.15;25.00;;;;;;;7.24;48.48;99829.19;5455984;32;35128;-74
2021/12/08 12:07:31;;;;;;;51.00;24.20;;;;;;;8.88;45.64;99823.88;5487420;32;34752;-77
2021/12/08 12:10:37;;;;;;;42.90;24.17;;;;;;;10.28;41.43;99814.25;5484786;32;34168;-76
2021/12/08 12:13:40;;;;;;;47.00;25.93;;;;;;;9.29;43.64;99803.81;5482853;32;35286;-78
2021/12/08 12:16:44;;;;;;;47.50;23.50;;;;;;;8.32;45.26;99816.50;5470529;32;34098;-71
2021/12/08 12:19:57;;;;;;;44.77;24.17;;;;;;;8.97;43.95;99806.94;5471927;32;35456;-74
2021/12/08 12:23:21;;;;;;;41.88;22.98;;;;;;;8.05;46.41;99808.81;5468444;32;35196;-75
2021/12/08 12:26:42;;;;;;;42.90;23.70;;;;;;;7.68;47.68;99806.69;5471397;32;34505;-75
2021/12/08 12:30:12;;;;;;;45.73;22.37;;;;;;;7.82;47.43;99803.56;5486487;32;34108;-76
2021/12/08 12:33:17;;;;;;;39.40;20.33;;;;;;;7.15;49.18;99803.34;5481865;32;34174;-79
2021/12/08 12:36:21;;;;;;;42.40;20.37;;;;;;;7.58;48.93;99790.47;5469475;32;34778;-75
2021/12/08 12:39:28;;;;;;;41.90;18.60;;;;;;;8.04;47.32;99798.38;5485320;32;33498;-71
2021/12/08 12:42:49;;;;;;;40.37;19.80;;;;;;;8.30;46.69;99797.38;5479132;32;34324;-71
2021/12/08 12:46:05;;;;;;;41.20;18.93;;;;;;;7.91;47.85;99795.37;5478287;32;34602;-67
2021/12/08 12:49:21;;;;;;;36.07;18.87;;;;;;;8.00;47.66;99799.44;5466298;32;35308;-72
2021/12/08 12:52:33;;;;;;;40.17;20.27;;;;;;;8.62;45.96;99788.25;5454902;32;34966;-77
2021/12/08 12:55:45;;;;;;;41.03;21.33;;;;;;;7.68;48.32;99796.25;5471035;32;34601;-77
2021/12/08 12:58:50;;;;;;;41.60;20.97;;;;;;;7.88;48.03;99779.81;5449530;32;35377;-71
2021/12/08 13:02:08;;;;;;;40.80;19.27;;;;;;;6.96;50.78;99784.84;5477176;32;35410;-75
2021/12/08 13:05:15;;;;;;;40.73;19.50;;;;;;;7.20;49.97;99783.12;5469342;32;34081;-66
2021/12/08 13:08:50;;;;;;;38.83;19.63;;;;;;;6.45;52.33;99781.28;5457957;32;36419;-85
2021/12/08 13:12:06;;;;;;;36.37;17.77;;;;;;;6.29;52.71;99780.03;5462103;32;33104;-80
2021/12/08 13:15:21;;;;;;;32.28;15.75;;;;;;;6.46;52.52;99775.16;5482598;32;33787;-83
2021/12/08 13:18:27;;;;;;;36.63;16.63;;;;;;;6.68;51.01;99770.06;5473694;32;35592;-74
2021/12/08 13:21:47;;;;;;;34.17;16.90;;;;;;;6.51;51.67;99773.25;5471636;32;35202;-72
2021/12/08 13:24:49;;;;;;;38.03;16.73;;;;;;;6.40;51.85;99780.56;5462951;32;35021;-73
2021/12/08 13:28:07;;;;;;;35.43;16.03;;;;;;;6.06;53.42;99774.69;5480271;32;35725;-70
2021/12/08 13:31:13;;;;;;;32.73;16.83;;;;;;;6.47;52.18;99778.63;5464335;32;35194;-72
2021/12/08 13:34:22;;;;;;;33.73;16.60;;;;;;;6.26;52.50;99782.75;5480690;32;34251;-80
2021/12/08 13:37:29;;;;;;;40.40;17.70;;;;;;;6.33;52.62;99784.28;5467350;32;34926;-73
2021/12/08 13:40:48;;;;;;;36.47;17.40;;;;;;;6.22;52.94;99778.53;5449521;32;34185;-80
2021/12/08 13:43:50;;;;;;;37.80;16.07;;;;;;;6.34;53.26;99779.91;5469261;32;34134;-72
2021/12/08 13:46:56;;;;;;;35.88;18.23;;;;;;;6.41;52.80;99784.88;5470562;32;34645;-63
2021/12/08 13:50:09;;;;;;;34.17;16.50;;;;;;;6.36;52.62;99786.78;5467917;32;34245;-65
2021/12/08 13:53:15;;;;;;;34.45;16.95;;;;;;;6.65;52.36;99778.03;5466468;32;34082;-75
2021/12/08 13:56:18;;;;;;;35.87;17.63;;;;;;;6.61;52.48;99786.00;5483743;32;35649;-75
2021/12/08 13:59:49;;;;;;;36.93;16.87;;;;;;;6.88;51.58;99784.25;5475513;32;34032;-71
2021/12/08 14:03:06;;;;;;;37.23;17.50;;;;;;;6.43;52.80;99790.91;5481301;32;34035;-77
2021/12/08 14:06:10;;;;;;;36.07;17.57;;;;;;;6.24;53.56;99792.38;5462981;32;35543;-77
2021/12/08 14:09:15;;;;;;;38.10;17.80;;;;;;;6.06;54.48;99793.81;5490001;32;34016;-74
2021/12/08 14:12:20;;;;;;;49.97;20.27;;;;;;;6.51;53.42;99788.94;5489410;32;35951;-85
2021/12/08 14:15:33;;;;;;;38.30;18.30;;;;;;;6.50;53.43;99787.22;5461896;32;34637;-81
2021/12/08 14:18:46;;;;;;;42.80;18.23;;;;;;;6.26;53.89;99784.53;5491842;32;33919;-79
2021/12/08 14:22:05;;;;;;;37.40;18.63;;;;;;;6.12;55.14;99784.94;5492054;32;33850;-78
2021/12/08 14:25:07;;;;;;;35.13;16.98;;;;;;;6.58;53.47;99776.53;5474770;32;35796;-77
2021/12/08 14:28:43;;;;;;;34.25;17.10;;;;;;;6.87;52.29;99788.59;5458504;32;33928;-69
2021/12/08 14:31:53;;;;;;;40.58;20.00;;;;;;;6.35;53.86;99782.47;5480854;32;34163;-75
2021/12/08 14:34:56;;;;;;;42.60;19.83;;;;;;;6.12;55.08;99798.84;5478089;32;35405;-76
2021/12/08 14:38:04;;;;;;;42.00;19.47;;;;;;;6.18;54.72;99795.16;5483086;32;34844;-77
2021/12/08 14:41:22;;;;;;;39.17;19.40;;;;;;;5.43;57.76;99798.19;5472909;32;34079;-74
2021/12/08 14:44:28;;;;;;;39.70;17.93;;;;;;;5.76;56.21;99803.34;5486395;32;34198;-73
2021/12/08 14:47:34;;;;;;;37.70;19.37;;;;;;;6.47;54.70;99797.75;5484044;32;34562;-71
2021/12/08 14:50:37;;;;;;;38.43;19.10;;;;;;;5.59;57.46;99805.56;5465507;32;35253;-74
2021/12/08 14:53:39;;;;;;;39.40;19.33;;;;;;;6.03;56.00;99809.53;5472385;32;33959;-72
2021/12/08 14:56:44;;;;;;;38.93;19.10;;;;;;;5.92;55.73;99791.59;5484749;32;35304;-72
2021/12/08 14:59:47;;;;;;;;;;;;;;;6.19;55.01;99791.69;5457572;32;34742;-64
2021/12/08 15:03:10;;;;;;;38.77;19.83;;;;;;;5.35;56.93;99779.31;5482653;32;35278;-65
2021/12/08 15:06:21;;;;;;;41.80;20.03;;;;;;;5.54;57.03;99777.06;5470464;32;35206;-75
2021/12/08 15:09:25;;;;;;;44.07;21.30;;;;;;;6.07;55.40;99771.19;5461720;32;35305;-75
2021/12/08 15:12:28;;;;;;;47.85;20.58;;;;;;;5.81;56.36;99771.94;5479341;32;34272;-76
2021/12/08 15:15:31;;;;;;;50.70;19.77;;;;;;;5.67;56.79;99772.34;5484099;32;34313;-66